createdAt,value
2023-01-13T00:01:15.672Z,100152.16
2023-01-13T00:03:43.231Z,100173.56
2023-01-13T00:06:14.946Z,100160.69
2023-01-13T00:08:42.205Z,100145.09
2023-01-13T00:11:10.404Z,100157.06
2023-01-13T00:13:38.453Z,100144.03
2023-01-13T00:16:07.834Z,100165.59
2023-01-13T00:18:37.555Z,100155.97
2023-01-13T00:21:07.778Z,100161.09
2023-01-13T00:23:37.263Z,100156.59
2023-01-13T00:26:07.777Z,100155.69
2023-01-13T00:28:34.826Z,100165.06
2023-01-13T00:31:09.947Z,100162.38
2023-01-13T00:33:38.241Z,100170.78
2023-01-13T00:36:07.760Z,100165.50
2023-01-13T00:38:36.670Z,100165.53
2023-01-13T00:41:08.718Z,100160.31
2023-01-13T00:43:39.754Z,100148.22
2023-01-13T00:46:09.113Z,100140.50
2023-01-13T00:48:37.953Z,100155.25
2023-01-13T00:51:10.861Z,100137.25
2023-01-13T00:53:41.047Z,100139.78
2023-01-13T00:56:14.315Z,100135.41
2023-01-13T00:58:41.745Z,100116.25
2023-01-13T01:01:12.068Z,100120.47
2023-01-13T01:03:39.647Z,100121.28
2023-01-13T01:06:12.048Z,100125.72
2023-01-13T01:08:39.312Z,100116.25
2023-01-13T01:11:12.417Z,100121.47
2023-01-13T01:13:39.817Z,100129.13
2023-01-13T01:16:10.825Z,100130.84
2023-01-13T01:18:40.344Z,100112.81
2023-01-13T01:21:08.341Z,100106.84
2023-01-13T01:23:37.597Z,100098.25
2023-01-13T01:26:11.948Z,100103.34
2023-01-13T01:28:39.519Z,100099.13
2023-01-13T01:31:09.153Z,100095.72
2023-01-13T01:33:36.652Z,100088.75
2023-01-13T01:36:04.530Z,100112.91
2023-01-13T01:38:31.542Z,100100.06
2023-01-13T01:40:58.573Z,100114.66
2023-01-13T01:44:11.011Z,100119.88
2023-01-13T01:46:42.094Z,100130.13
2023-01-13T01:49:32.075Z,100118.00
2023-01-13T01:52:07.992Z,100136.13
2023-01-13T01:54:38.093Z,100120.78
2023-01-13T01:57:09.998Z,100112.19
2023-01-13T01:59:38.754Z,100119.91
2023-01-13T02:02:05.974Z,100116.56
2023-01-13T02:04:39.091Z,100117.28
2023-01-13T02:07:06.944Z,100100.16
2023-01-13T02:09:36.953Z,100109.56
2023-01-13T02:12:23.006Z,100101.81
2023-01-13T02:14:50.044Z,100113.97
2023-01-13T02:17:54.455Z,100113.06
2023-01-13T02:20:43.102Z,100113.03
2023-01-13T02:23:37.570Z,100105.25
2023-01-13T02:26:39.790Z,100103.59
2023-01-13T02:29:44.687Z,100104.41
2023-01-13T02:32:18.889Z,100101.81
2023-01-13T02:35:01.200Z,100093.25
2023-01-13T02:37:31.563Z,100069.09
2023-01-13T02:40:02.971Z,100072.59
2023-01-13T02:42:53.468Z,100077.81
2023-01-13T02:45:32.076Z,100076.19
2023-01-13T02:48:01.801Z,100084.00
2023-01-13T02:50:35.256Z,100082.19
2023-01-13T02:53:24.344Z,100057.97
2023-01-13T02:55:54.178Z,100081.31
2023-01-13T02:58:28.033Z,100070.09
2023-01-13T03:00:55.489Z,100061.44
2023-01-13T03:03:22.630Z,100064.22
2023-01-13T03:06:00.730Z,100078.84
2023-01-13T03:08:39.741Z,100074.44
2023-01-13T03:11:12.861Z,100061.34
2023-01-13T03:14:04.390Z,100055.19
2023-01-13T03:16:40.284Z,100069.88
2023-01-13T03:19:33.749Z,100069.72
2023-01-13T03:22:45.183Z,100075.81
2023-01-13T03:25:36.254Z,100075.75
2023-01-13T03:28:17.291Z,100073.09
2023-01-13T03:30:50.062Z,100074.84
2023-01-13T03:33:23.433Z,100064.59
2023-01-13T03:35:57.965Z,100072.41
2023-01-13T03:38:39.446Z,100078.44
2023-01-13T03:41:21.959Z,100077.44
2023-01-13T03:44:15.858Z,100080.81
2023-01-13T03:46:49.493Z,100083.63
2023-01-13T03:49:22.062Z,100069.94
2023-01-13T03:51:56.074Z,100059.56
2023-01-13T03:54:28.030Z,100073.44
2023-01-13T03:57:00.574Z,100071.00
2023-01-13T03:59:33.382Z,100067.53
2023-01-13T04:02:14.431Z,100076.06
2023-01-13T04:04:48.093Z,100059.81
2023-01-13T04:07:37.785Z,100071.00
2023-01-13T04:10:08.474Z,100075.25
2023-01-13T04:13:11.775Z,100074.44
2023-01-13T04:15:42.748Z,100084.66
2023-01-13T04:18:11.659Z,100090.69
2023-01-13T04:20:40.023Z,100080.38
2023-01-13T04:23:08.651Z,100097.50
2023-01-13T04:25:36.954Z,100084.41
2023-01-13T04:28:04.109Z,100096.75
2023-01-13T04:30:31.439Z,100109.47
2023-01-13T04:32:58.451Z,100099.97
2023-01-13T04:35:25.539Z,100080.00
2023-01-13T04:37:52.800Z,100080.91
2023-01-13T04:40:19.928Z,100096.50
2023-01-13T04:42:46.947Z,100093.06
2023-01-13T04:45:14.747Z,100069.78
2023-01-13T04:47:41.959Z,100074.09
2023-01-13T04:50:10.260Z,100081.84
2023-01-13T04:52:38.882Z,100077.44
2023-01-13T04:55:07.242Z,100063.63
2023-01-13T04:57:38.069Z,100078.16
2023-01-13T05:00:10.178Z,100061.69
2023-01-13T05:02:38.323Z,100062.56
2023-01-13T05:05:06.402Z,100065.06
2023-01-13T05:07:34.189Z,100068.38
2023-01-13T05:10:01.628Z,100058.25
2023-01-13T05:12:46.900Z,100065.03
2023-01-13T05:15:34.296Z,100070.13
2023-01-13T05:18:01.903Z,100075.25
2023-01-13T05:20:29.000Z,100066.59
2023-01-13T05:23:14.518Z,100065.81
2023-01-13T05:25:44.513Z,100070.84
2023-01-13T05:28:12.319Z,100064.06
2023-01-13T05:30:43.921Z,100083.00
2023-01-13T05:33:12.806Z,100072.69
2023-01-13T05:35:45.108Z,100069.25
2023-01-13T05:38:12.930Z,100058.97
2023-01-13T05:40:59.947Z,100065.88
2023-01-13T05:43:27.477Z,100059.84
2023-01-13T05:45:58.981Z,100070.97
2023-01-13T05:48:32.305Z,100077.72
2023-01-13T05:50:59.819Z,100080.41
2023-01-13T05:53:27.381Z,100067.38
2023-01-13T05:55:54.824Z,100074.31
2023-01-13T05:58:25.142Z,100078.56
2023-01-13T06:00:52.660Z,100069.09
2023-01-13T06:03:20.281Z,100088.91
2023-01-13T06:05:48.160Z,100080.31
2023-01-13T06:08:15.313Z,100063.94
2023-01-13T06:10:42.870Z,100068.22
2023-01-13T06:13:09.964Z,100069.00
2023-01-13T06:15:37.614Z,100065.50
2023-01-13T06:18:06.442Z,100078.41
2023-01-13T06:20:33.486Z,100075.00
2023-01-13T06:23:01.622Z,100074.06
2023-01-13T06:25:32.096Z,100074.13
2023-01-13T06:27:59.908Z,100079.25
2023-01-13T06:30:33.872Z,100067.22
2023-01-13T06:33:09.297Z,100075.94
2023-01-13T06:35:38.781Z,100081.22
2023-01-13T06:38:11.414Z,100083.81
2023-01-13T06:40:38.893Z,100091.50
2023-01-13T06:43:16.335Z,100090.69
2023-01-13T06:45:48.863Z,100107.97
2023-01-13T06:48:17.640Z,100099.47
2023-01-13T06:50:45.204Z,100106.34
2023-01-13T06:53:12.739Z,100104.72
2023-01-13T06:55:39.789Z,100105.53
2023-01-13T06:58:08.115Z,100116.75
2023-01-13T07:00:37.645Z,100120.16
2023-01-13T07:03:08.929Z,100109.84
2023-01-13T07:05:36.713Z,100122.75
2023-01-13T07:08:04.795Z,100123.66
2023-01-13T07:10:32.536Z,100119.31
2023-01-13T07:13:20.452Z,100126.19
2023-01-13T07:15:58.723Z,100117.41
2023-01-13T07:18:27.749Z,100119.22
2023-01-13T07:20:56.580Z,100113.88
2023-01-13T07:23:24.640Z,100119.22
2023-01-13T07:25:51.717Z,100121.75
2023-01-13T07:28:18.756Z,100121.75
2023-01-13T07:30:45.834Z,100113.13
2023-01-13T07:33:12.958Z,100128.66
2023-01-13T07:35:40.066Z,100114.06
2023-01-13T07:38:08.418Z,100128.78
2023-01-13T07:40:37.734Z,100115.94
2023-01-13T07:43:23.678Z,100122.91
2023-01-13T07:45:56.344Z,100116.00
2023-01-13T07:48:23.445Z,100122.91
2023-01-13T07:50:50.577Z,100134.84
2023-01-13T07:53:17.641Z,100128.03
2023-01-13T07:55:45.070Z,100133.31
2023-01-13T07:58:12.091Z,100132.50
2023-01-13T08:00:39.244Z,100136.84
2023-01-13T08:03:06.801Z,100141.94
2023-01-13T08:05:35.450Z,100136.84
2023-01-13T08:08:02.785Z,100137.75
2023-01-13T08:10:30.239Z,100135.03
2023-01-13T08:13:15.711Z,100130.84
2023-01-13T08:15:44.002Z,100139.44
2023-01-13T08:18:11.311Z,100148.03
2023-01-13T08:20:38.492Z,100154.88
2023-01-13T08:23:07.319Z,100145.47
2023-01-13T08:25:34.850Z,100158.13
2023-01-13T08:28:01.932Z,100189.72
2023-01-13T08:30:29.424Z,100170.53
2023-01-13T08:32:57.060Z,100178.19
2023-01-13T08:35:24.241Z,100180.63
2023-01-13T08:37:51.817Z,100180.56
2023-01-13T08:40:20.819Z,100173.59
2023-01-13T08:42:48.824Z,100175.06
2023-01-13T08:45:16.237Z,100177.66
2023-01-13T08:47:46.327Z,100182.72
2023-01-13T08:50:14.537Z,100182.72
2023-01-13T08:52:41.722Z,100178.28
2023-01-13T08:55:09.600Z,100199.72
2023-01-13T08:57:37.957Z,100209.13
2023-01-13T09:00:09.623Z,100202.22
2023-01-13T09:02:38.534Z,100208.84
2023-01-13T09:05:07.676Z,100205.38
2023-01-13T09:07:37.457Z,100200.09
2023-01-13T09:10:07.745Z,100207.81
2023-01-13T09:12:53.341Z,100218.97
2023-01-13T09:15:21.606Z,100220.84
2023-01-13T09:17:48.745Z,100219.97
2023-01-13T09:20:16.160Z,100221.00
2023-01-13T09:22:43.688Z,100223.75
2023-01-13T09:25:12.893Z,100230.47
2023-01-13T09:27:39.982Z,100215.19
2023-01-13T09:30:08.510Z,100224.66
2023-01-13T09:32:36.760Z,100221.94
2023-01-13T09:35:06.699Z,100223.69
2023-01-13T09:37:37.414Z,100233.19
2023-01-13T09:40:12.890Z,100229.69
2023-01-13T09:43:21.074Z,100245.09
2023-01-13T09:45:56.039Z,100241.59
2023-01-13T09:48:30.443Z,100257.94
2023-01-13T09:51:03.762Z,100252.91
2023-01-13T09:53:37.646Z,100233.16
2023-01-13T09:56:05.053Z,100265.94
2023-01-13T09:58:33.034Z,100258.09
2023-01-13T10:01:12.119Z,100260.91
2023-01-13T10:03:40.017Z,100263.50
2023-01-13T10:06:36.424Z,100260.13
2023-01-13T10:09:03.846Z,100262.66
2023-01-13T10:11:56.505Z,100267.09
2023-01-13T10:14:42.071Z,100269.59
2023-01-13T10:17:18.599Z,100270.25
2023-01-13T10:19:58.071Z,100271.75
2023-01-13T10:22:43.976Z,100279.38
2023-01-13T10:25:29.574Z,100284.56
2023-01-13T10:28:04.273Z,100282.06
2023-01-13T10:30:41.346Z,100287.25
2023-01-13T10:33:28.505Z,100296.56
2023-01-13T10:36:16.245Z,100305.19
2023-01-13T10:38:48.831Z,100306.03
2023-01-13T10:41:15.807Z,100301.97
2023-01-13T10:43:44.773Z,100301.09
2023-01-13T10:46:16.359Z,100308.13
2023-01-13T10:48:52.832Z,100305.59
2023-01-13T10:51:25.216Z,100307.50
2023-01-13T10:54:02.960Z,100312.88
2023-01-13T10:56:34.174Z,100320.69
2023-01-13T10:59:27.018Z,100319.91
2023-01-13T11:02:03.949Z,100315.66
2023-01-13T11:04:37.649Z,100329.84
2023-01-13T11:07:17.697Z,100324.94
2023-01-13T11:09:44.870Z,100342.28
2023-01-13T11:12:32.176Z,100340.66
2023-01-13T11:15:04.302Z,100332.91
2023-01-13T11:17:36.542Z,100345.06
2023-01-13T11:20:16.337Z,100345.13
2023-01-13T11:22:55.625Z,100349.44
2023-01-13T11:25:31.643Z,100348.75
2023-01-13T11:28:11.335Z,100357.47
2023-01-13T11:31:16.840Z,100357.50
2023-01-13T11:34:17.783Z,100372.22
2023-01-13T11:36:51.233Z,100355.84
2023-01-13T11:39:21.720Z,100364.63
2023-01-13T11:42:21.373Z,100359.47
2023-01-13T11:45:02.746Z,100369.91
2023-01-13T11:47:35.067Z,100372.56
2023-01-13T11:50:07.443Z,100369.00
2023-01-13T11:52:44.038Z,100388.19
2023-01-13T11:55:25.227Z,100378.78
2023-01-13T11:58:13.907Z,100393.50
2023-01-13T12:00:53.371Z,100391.81
2023-01-13T12:03:33.713Z,100366.75
2023-01-13T12:06:19.757Z,100406.56
2023-01-13T12:08:57.414Z,100401.41
2023-01-13T12:11:59.498Z,100393.72
2023-01-13T12:14:51.785Z,100403.84
2023-01-13T12:17:34.487Z,100405.47
2023-01-13T12:20:26.057Z,100411.53
2023-01-13T12:22:56.681Z,100407.28
2023-01-13T12:25:37.537Z,100417.63
2023-01-13T12:28:17.030Z,100415.06
2023-01-13T12:31:10.672Z,100420.25
2023-01-13T12:33:56.507Z,100428.97
2023-01-13T12:36:32.188Z,100432.28
2023-01-13T12:39:15.129Z,100429.81
2023-01-13T12:42:24.114Z,100436.75
2023-01-13T12:45:09.736Z,100450.44
2023-01-13T12:47:43.722Z,100442.84
2023-01-13T12:50:22.952Z,100442.97
2023-01-13T12:52:51.757Z,100457.59
2023-01-13T12:55:25.964Z,100452.56
2023-01-13T12:58:02.902Z,100456.06
2023-01-13T13:00:41.753Z,100468.97
2023-01-13T13:03:12.170Z,100451.84
2023-01-13T13:05:57.682Z,100462.16
2023-01-13T13:08:35.080Z,100470.72
2023-01-13T13:11:33.740Z,100484.44
2023-01-13T13:14:03.791Z,100471.56
2023-01-13T13:16:43.918Z,100468.75
2023-01-13T13:19:22.895Z,100492.06
2023-01-13T13:22:11.659Z,100495.47
2023-01-13T13:24:39.977Z,100498.13
2023-01-13T13:27:19.748Z,100506.59
2023-01-13T13:30:03.053Z,100523.09
2023-01-13T13:33:02.608Z,100497.34
2023-01-13T13:35:36.638Z,100503.41
2023-01-13T13:38:40.541Z,100500.00
2023-01-13T13:41:44.260Z,100511.16
2023-01-13T13:44:40.859Z,100512.09
2023-01-13T13:47:08.151Z,100522.38
2023-01-13T13:49:56.376Z,100520.63
2023-01-13T13:52:35.198Z,100509.41
2023-01-13T13:55:28.375Z,100523.16
2023-01-13T13:58:01.682Z,100529.13
2023-01-13T14:00:34.842Z,100539.50
2023-01-13T14:03:22.024Z,100546.19
2023-01-13T14:06:19.195Z,100563.53
2023-01-13T14:08:49.896Z,100563.44
2023-01-13T14:11:32.451Z,100565.28
2023-01-13T14:14:13.867Z,100591.91
2023-01-13T14:16:41.525Z,100579.72
2023-01-13T14:19:29.329Z,100597.84
2023-01-13T14:21:58.121Z,100587.53
2023-01-13T14:24:25.306Z,100615.00
2023-01-13T14:26:53.192Z,100614.16
2023-01-13T14:29:23.628Z,100606.44
2023-01-13T14:31:53.839Z,100601.91
2023-01-13T14:34:32.385Z,100616.59
2023-01-13T14:37:01.550Z,100604.44
2023-01-13T14:39:41.205Z,100621.56
2023-01-13T14:42:14.207Z,100628.47
2023-01-13T14:44:46.034Z,100642.94
2023-01-13T14:47:33.908Z,100635.03
2023-01-13T14:50:03.805Z,100627.53
2023-01-13T14:52:37.696Z,100635.56
2023-01-13T14:55:10.676Z,100650.72
2023-01-13T14:57:41.527Z,100654.78
2023-01-13T15:00:14.302Z,100644.47
2023-01-13T15:02:50.193Z,100667.09
2023-01-13T15:05:17.346Z,100674.09
2023-01-13T15:07:52.760Z,100675.97
2023-01-13T15:10:31.291Z,100683.88
2023-01-13T15:13:01.255Z,100678.53
2023-01-13T15:15:36.614Z,100686.44
2023-01-13T15:18:15.536Z,100700.94
2023-01-13T15:20:42.896Z,100706.19
2023-01-13T15:23:10.533Z,100703.53
2023-01-13T15:25:42.800Z,100707.28
2023-01-13T15:28:26.611Z,100700.34
2023-01-13T15:30:55.277Z,100710.88
2023-01-13T15:33:22.601Z,100735.88
2023-01-13T15:35:52.075Z,100739.34
2023-01-13T15:38:21.604Z,100754.81
2023-01-13T15:40:49.890Z,100746.94
2023-01-13T15:43:44.273Z,100756.38
2023-01-13T15:46:34.000Z,100763.19
2023-01-13T15:49:12.893Z,100763.00
2023-01-13T15:51:40.233Z,100770.50
2023-01-13T15:54:08.737Z,100792.72
2023-01-13T15:56:38.840Z,100779.63
2023-01-13T15:59:26.887Z,100776.88
2023-01-13T16:01:54.287Z,100795.03
2023-01-13T16:04:21.425Z,100772.72
2023-01-13T16:06:48.624Z,100795.38
2023-01-13T16:09:16.754Z,100797.28
2023-01-13T16:11:44.159Z,100803.41
2023-01-13T16:14:11.263Z,100810.41
2023-01-13T16:16:38.574Z,100791.41
2023-01-13T16:19:05.668Z,100811.34
2023-01-13T16:21:33.234Z,100818.28
2023-01-13T16:24:00.294Z,100820.78
2023-01-13T16:26:29.940Z,100817.00
2023-01-13T16:28:57.957Z,100808.50
2023-01-13T16:31:31.970Z,100823.91
2023-01-13T16:34:01.657Z,100823.31
2023-01-13T16:36:30.724Z,100843.09
2023-01-13T16:38:57.868Z,100825.81
2023-01-13T16:41:25.286Z,100822.59
2023-01-13T16:43:52.814Z,100835.63
2023-01-13T16:46:29.338Z,100833.06
2023-01-13T16:49:01.598Z,100839.72
2023-01-13T16:51:28.815Z,100857.63
2023-01-13T16:53:56.268Z,100859.97
2023-01-13T16:56:30.197Z,100871.69
2023-01-13T16:58:59.776Z,100853.19
2023-01-13T17:01:29.250Z,100872.84
2023-01-13T17:03:57.991Z,100849.34
2023-01-13T17:06:31.623Z,100855.97
2023-01-13T17:09:07.783Z,100872.50
2023-01-13T17:11:34.880Z,100872.38
2023-01-13T17:14:05.246Z,100875.78
2023-01-13T17:16:46.089Z,100878.59
2023-01-13T17:19:13.915Z,100894.75
2023-01-13T17:21:41.130Z,100891.81
2023-01-13T17:24:10.719Z,100890.91
2023-01-13T17:26:48.997Z,100904.66
2023-01-13T17:29:22.378Z,100906.41
2023-01-13T17:31:51.605Z,100921.97
2023-01-13T17:34:19.904Z,100915.25
2023-01-13T17:36:54.112Z,100911.78
2023-01-13T17:39:26.729Z,100915.19
2023-01-13T17:41:55.868Z,100918.47
2023-01-13T17:44:23.490Z,100925.34
2023-01-13T17:46:50.841Z,100924.31
2023-01-13T17:49:21.256Z,100925.06
2023-01-13T17:51:48.470Z,100926.53
2023-01-13T17:54:15.689Z,100934.25
2023-01-13T17:56:44.099Z,100934.47
2023-01-13T17:59:13.252Z,100931.94
2023-01-13T18:01:40.485Z,100933.50
2023-01-13T18:04:18.204Z,100941.22
2023-01-13T18:06:45.460Z,100942.03
2023-01-13T18:09:12.912Z,100938.69
2023-01-13T18:11:39.954Z,100931.78
2023-01-13T18:14:09.418Z,100938.69
2023-01-13T18:16:37.905Z,100935.06
2023-01-13T18:19:23.482Z,100937.50
2023-01-13T18:22:09.546Z,100946.75
2023-01-13T18:24:54.911Z,100955.09
2023-01-13T18:27:29.411Z,100956.78
2023-01-13T18:29:58.617Z,100962.59
2023-01-13T18:32:32.698Z,100961.59
2023-01-13T18:35:06.071Z,100969.13
2023-01-13T18:37:38.790Z,100971.63
2023-01-13T18:40:09.166Z,100992.03
2023-01-13T18:42:54.493Z,100989.69
2023-01-13T18:45:29.646Z,100992.44
2023-01-13T18:47:59.083Z,100990.03
2023-01-13T18:50:27.019Z,100989.41
2023-01-13T18:52:54.236Z,100994.03
2023-01-13T18:55:21.447Z,100994.44
2023-01-13T18:57:49.138Z,100991.25
2023-01-13T19:00:19.222Z,101003.66
2023-01-13T19:02:47.460Z,100993.53
2023-01-13T19:05:14.839Z,101000.88
2023-01-13T19:07:46.267Z,101006.97
2023-01-13T19:10:13.927Z,101019.31
2023-01-13T19:12:42.186Z,101011.91
2023-01-13T19:15:10.089Z,101016.31
2023-01-13T19:17:37.863Z,101021.59
2023-01-13T19:20:06.514Z,101044.16
2023-01-13T19:22:34.750Z,101041.75
2023-01-13T19:25:03.242Z,101041.84
2023-01-13T19:27:30.885Z,101043.53
2023-01-13T19:29:58.625Z,101036.78
2023-01-13T19:32:26.370Z,101041.75
2023-01-13T19:34:54.984Z,101046.22
2023-01-13T19:37:22.104Z,101036.72
2023-01-13T19:39:49.201Z,101049.84
2023-01-13T19:42:35.135Z,101058.28
2023-01-13T19:45:21.186Z,101062.66
2023-01-13T19:47:48.213Z,101080.00
2023-01-13T19:50:15.512Z,101080.72
2023-01-13T19:52:43.078Z,101071.50
2023-01-13T19:55:12.182Z,101072.75
2023-01-13T19:57:40.194Z,101072.38
2023-01-13T20:00:09.873Z,101082.66
2023-01-13T20:02:38.969Z,101079.28
2023-01-13T20:05:08.053Z,101084.41
2023-01-13T20:07:35.403Z,101095.69
2023-01-13T20:10:03.377Z,101100.25
2023-01-13T20:12:30.466Z,101095.28
2023-01-13T20:14:57.508Z,101094.59
2023-01-13T20:17:26.301Z,101108.53
2023-01-13T20:19:53.724Z,101092.22
2023-01-13T20:22:21.206Z,101105.69
2023-01-13T20:24:52.013Z,101111.47
2023-01-13T20:27:19.159Z,101116.47
2023-01-13T20:29:46.186Z,101121.59
2023-01-13T20:32:13.339Z,101100.56
2023-01-13T20:34:40.584Z,101115.69
2023-01-13T20:37:10.468Z,101119.78
2023-01-13T20:39:40.010Z,101119.75
2023-01-13T20:42:28.160Z,101128.28
2023-01-13T20:44:56.450Z,101148.84
2023-01-13T20:47:23.762Z,101139.84
2023-01-13T20:49:50.891Z,101152.03
2023-01-13T20:52:17.959Z,101159.84
2023-01-13T20:54:44.944Z,101165.84
2023-01-13T20:57:12.801Z,101153.53
2023-01-13T20:59:40.400Z,101163.00
2023-01-13T21:02:13.175Z,101163.00
2023-01-13T21:04:40.950Z,101168.91
2023-01-13T21:07:08.514Z,101172.53
2023-01-13T21:09:37.856Z,101164.53
2023-01-13T21:12:24.180Z,101167.84
2023-01-13T21:15:09.757Z,101181.81
2023-01-13T21:17:56.055Z,101184.66
2023-01-13T21:20:23.195Z,101183.72
2023-01-13T21:22:50.324Z,101189.09
2023-01-13T21:25:18.478Z,101189.13
2023-01-13T21:27:45.595Z,101192.06
2023-01-13T21:30:14.874Z,101191.31
2023-01-13T21:32:43.686Z,101191.22
2023-01-13T21:35:11.731Z,101177.53
2023-01-13T21:37:40.924Z,101198.22
2023-01-13T21:40:11.059Z,101199.22
2023-01-13T21:42:56.566Z,101202.59
2023-01-13T21:45:42.785Z,101208.75
2023-01-13T21:48:09.940Z,101206.06
2023-01-13T21:50:38.484Z,101205.94
2023-01-13T21:53:09.964Z,101219.81
2023-01-13T21:55:38.085Z,101217.31
2023-01-13T21:58:14.216Z,101217.22
2023-01-13T22:00:43.504Z,101222.38
2023-01-13T22:03:12.419Z,101218.16
2023-01-13T22:05:41.023Z,101223.44
2023-01-13T22:08:08.501Z,101230.03
2023-01-13T22:10:37.943Z,101225.94
2023-01-13T22:13:23.800Z,101227.69
2023-01-13T22:15:50.907Z,101238.22
2023-01-13T22:18:20.518Z,101242.69
2023-01-13T22:20:49.074Z,101235.97
2023-01-13T22:23:16.184Z,101253.50
2023-01-13T22:25:43.277Z,101253.63
2023-01-13T22:28:14.331Z,101252.88
2023-01-13T22:30:41.572Z,101263.16
2023-01-13T22:33:08.603Z,101258.78
2023-01-13T22:35:36.669Z,101257.03
2023-01-13T22:38:03.674Z,101250.81
2023-01-13T22:40:30.738Z,101260.38
2023-01-13T22:42:57.732Z,101267.41
2023-01-13T22:45:24.793Z,101262.97
2023-01-13T22:47:51.853Z,101269.13
2023-01-13T22:50:20.858Z,101269.25
2023-01-13T22:52:48.058Z,101269.03
2023-01-13T22:55:15.147Z,101262.16
2023-01-13T22:57:47.795Z,101271.78
2023-01-13T23:00:18.801Z,101288.16
2023-01-13T23:02:46.514Z,101277.84
2023-01-13T23:05:16.602Z,101267.44
2023-01-13T23:07:44.439Z,101270.97
2023-01-13T23:10:11.734Z,101278.56
2023-01-13T23:12:38.936Z,101281.13
2023-01-13T23:15:06.682Z,101282.78
2023-01-13T23:17:33.927Z,101283.47
2023-01-13T23:20:01.501Z,101281.78
2023-01-13T23:22:28.614Z,101280.16
2023-01-13T23:24:55.723Z,101269.97
2023-01-13T23:27:22.806Z,101271.59
2023-01-13T23:29:49.813Z,101261.91
2023-01-13T23:32:16.924Z,101262.97
2023-01-13T23:34:44.482Z,101258.16
2023-01-13T23:37:11.632Z,101257.31
2023-01-13T23:39:38.698Z,101259.78
2023-01-13T23:42:06.910Z,101257.09
2023-01-13T23:44:33.971Z,101248.31
2023-01-13T23:47:01.022Z,101257.03
2023-01-13T23:49:28.571Z,101252.59
2023-01-13T23:51:55.695Z,101261.06
2023-01-13T23:54:22.803Z,101259.19
2023-01-13T23:56:52.406Z,101258.38
2023-01-13T23:59:20.250Z,101262.81
